Etusivu
METAR-TAF:

METAR-TAF

Lentoasemat :

Berlevåg, Norja

Leveyspiiri: 70-52N, Pituuspiiri: 029-02E, korkeus merenpinnasta: 1 m

Tämänhetkinen sää

Tämä raportti tehtiin 29 minuuttia sitten, kello 18.50 UTC
Tuuli 7 kn pohjoisesta
Lämpötila 4°C
Kosteus 70%
Ilmanpaine 1010 hPa
Näkyvyys 10 km tai enemmän
ei pilviä alle 1500 m:ssä eikä cumulonimbus-pilviä

METAR: ENBV 241850Z 01007KT CAVOK 04/M01 Q1010

Aika: 21:19 (19:19 UTC)

Sääennuste

Tämä raportti tehtiin 11 tuntia ja 19 minuuttia sitten, kello 08.00 UTC
Ennuste voimassa 24. päivästä klo 09 UTC - 24. päivään klo 12 UTC
Tuuli 8 kn eri suunnista
Näkyvyys 10 km tai enemmän
Hajonneita pilviä 2500 ft:n korkeudessa

TAF: ENBV 240800Z 2409/2412 VRB08KT 9999 BKN025

Säähavainnot ja -ennusteet yli 4000 lentoasemalta (METAR- ja TAF-raportit).

Käytössä olevat sääasemat on merkitty karttaan keltaisilla ja punaisilla pisteillä.

Aseta hiiri pisteen päälle nähdäksesi sääaseman nimen.

Klikkaa sitten nähdäksesi säähavainnot ja -ennusteet.

Kartan vaihtaminen: klikkaa mustalla rastilla varustettuja vihreitä pisteitä, niin voit zoomata sisään; viivalla varustettua vihreää pistettä, niin voit zoomata ulos tai vihreitä nuolia, niin pääset viereisille kartoille.


METAR-TAF: